createdAt,value
2023-05-09T00:01:20.760Z,9.88
2023-05-09T00:03:51.535Z,9.85
2023-05-09T00:06:19.852Z,10.15
2023-05-09T00:08:47.850Z,10.38
2023-05-09T00:11:17.194Z,9.80
2023-05-09T00:13:45.150Z,10.00
2023-05-09T00:16:16.933Z,10.13
2023-05-09T00:18:45.099Z,9.50
2023-05-09T00:21:13.081Z,10.18
2023-05-09T00:23:41.072Z,10.18
2023-05-09T00:26:11.770Z,10.45
2023-05-09T00:28:41.099Z,9.68
2023-05-09T00:31:12.010Z,9.30
2023-05-09T00:33:40.045Z,9.95
2023-05-09T00:36:08.559Z,9.68
2023-05-09T00:38:36.523Z,10.05
2023-05-09T00:41:04.703Z,10.15
2023-05-09T00:43:32.725Z,9.95
2023-05-09T00:46:02.281Z,9.73
2023-05-09T00:48:30.342Z,10.60
2023-05-09T00:50:58.388Z,10.07
2023-05-09T00:53:26.559Z,9.90
2023-05-09T00:55:57.819Z,10.30
2023-05-09T00:58:26.439Z,10.10
2023-05-09T01:00:54.341Z,9.90
2023-05-09T01:03:24.057Z,10.27
2023-05-09T01:05:59.534Z,9.65
2023-05-09T01:08:48.227Z,10.20
2023-05-09T01:11:27.918Z,9.48
2023-05-09T01:14:06.234Z,9.80
2023-05-09T01:16:42.713Z,10.07
2023-05-09T01:19:33.621Z,10.40
2023-05-09T01:22:05.372Z,10.20
2023-05-09T01:24:51.846Z,9.43
2023-05-09T01:27:29.734Z,10.52
2023-05-09T01:30:04.275Z,9.60
2023-05-09T01:32:36.949Z,10.02
2023-05-09T01:35:07.661Z,9.75
2023-05-09T01:37:43.066Z,9.57
2023-05-09T01:42:45.596Z,9.38
2023-05-09T01:45:17.029Z,9.07
2023-05-09T01:47:45.955Z,9.18
2023-05-09T01:50:14.335Z,10.35
2023-05-09T01:52:44.412Z,9.88
2023-05-09T01:55:13.737Z,10.68
2023-05-09T01:57:43.183Z,10.80
2023-05-09T02:00:14.386Z,9.55
2023-05-09T02:02:44.679Z,9.63
2023-05-09T02:05:16.777Z,10.10
2023-05-09T02:07:47.593Z,10.27
2023-05-09T02:10:17.024Z,10.27
2023-05-09T02:12:44.995Z,9.35
2023-05-09T02:15:13.209Z,10.77
2023-05-09T02:17:42.345Z,9.57
2023-05-09T02:20:13.450Z,11.25
2023-05-09T02:22:44.000Z,9.90
2023-05-09T02:25:15.270Z,10.15
2023-05-09T02:27:49.000Z,9.77
2023-05-09T02:30:23.484Z,9.93
2023-05-09T02:32:54.593Z,9.52
2023-05-09T02:35:25.976Z,10.13
2023-05-09T02:37:55.065Z,10.20
2023-05-09T02:40:23.941Z,10.43
2023-05-09T02:42:51.842Z,10.18
2023-05-09T02:45:19.848Z,11.13
2023-05-09T02:47:50.360Z,10.57
2023-05-09T02:50:19.112Z,9.88
2023-05-09T02:52:48.388Z,10.48
2023-05-09T02:55:16.619Z,10.15
2023-05-09T02:57:44.859Z,10.45
2023-05-09T03:00:14.083Z,11.05
2023-05-09T03:02:42.168Z,11.18
2023-05-09T03:05:10.539Z,10.45
2023-05-09T03:07:40.991Z,10.30
2023-05-09T03:10:12.239Z,10.40
2023-05-09T03:12:40.307Z,10.00
2023-05-09T03:15:09.575Z,9.82
2023-05-09T03:17:40.401Z,9.73
2023-05-09T03:20:10.478Z,10.48
2023-05-09T03:22:38.446Z,10.85
2023-05-09T03:25:07.417Z,9.98
2023-05-09T03:27:36.682Z,10.98
2023-05-09T03:30:05.091Z,10.27
2023-05-09T03:32:33.035Z,9.90
2023-05-09T03:35:01.122Z,10.27
2023-05-09T03:37:29.032Z,9.43
2023-05-09T03:39:56.866Z,10.68
2023-05-09T03:42:24.799Z,11.32
2023-05-09T03:44:55.028Z,8.95
2023-05-09T03:47:23.073Z,10.32
2023-05-09T03:49:51.004Z,10.80
2023-05-09T03:52:18.904Z,10.70
2023-05-09T03:54:46.918Z,10.45
2023-05-09T03:57:14.831Z,9.80
2023-05-09T03:59:42.715Z,9.77
2023-05-09T04:02:12.141Z,11.23
2023-05-09T04:04:40.390Z,8.55
2023-05-09T04:07:08.461Z,7.22
2023-05-09T04:09:36.396Z,9.05
2023-05-09T04:12:04.596Z,10.35
2023-05-09T04:14:32.499Z,8.60
2023-05-09T04:17:00.496Z,11.30
2023-05-09T04:19:29.897Z,11.05
2023-05-09T04:21:58.255Z,10.45
2023-05-09T04:24:27.118Z,10.30
2023-05-09T04:26:55.014Z,10.10
2023-05-09T04:29:22.964Z,9.93
2023-05-09T04:31:51.008Z,9.98
2023-05-09T04:34:19.000Z,10.43
2023-05-09T04:36:52.186Z,11.10
2023-05-09T04:39:20.595Z,9.75
2023-05-09T04:41:51.623Z,10.95
2023-05-09T04:44:19.703Z,10.55
2023-05-09T04:46:47.715Z,9.50
2023-05-09T04:49:15.658Z,9.85
2023-05-09T04:51:43.579Z,9.95
2023-05-09T04:54:12.949Z,9.50
2023-05-09T04:56:42.921Z,8.80
2023-05-09T04:59:13.714Z,8.88
2023-05-09T05:01:41.755Z,9.95
2023-05-09T05:04:10.214Z,9.25
2023-05-09T05:06:41.133Z,10.50
2023-05-09T05:09:11.222Z,9.98
2023-05-09T05:11:53.161Z,9.23
2023-05-09T05:14:26.706Z,9.10
2023-05-09T05:16:54.654Z,9.85
2023-05-09T05:19:22.536Z,9.63
2023-05-09T05:21:59.228Z,9.35
2023-05-09T05:24:27.089Z,9.70
2023-05-09T05:26:56.360Z,10.38
2023-05-09T05:29:24.301Z,9.07
2023-05-09T05:31:52.387Z,9.35
2023-05-09T05:34:23.306Z,9.40
2023-05-09T05:36:51.248Z,8.20
2023-05-09T05:39:19.209Z,9.48
2023-05-09T05:41:47.154Z,9.15
2023-05-09T05:44:16.665Z,8.80
2023-05-09T05:46:44.610Z,8.70
2023-05-09T05:49:12.533Z,8.40
2023-05-09T05:51:40.852Z,8.55
2023-05-09T05:54:11.793Z,9.48
2023-05-09T05:56:39.767Z,9.30
2023-05-09T05:59:07.678Z,8.90
2023-05-09T06:01:37.075Z,9.32
2023-05-09T06:04:05.505Z,9.23
2023-05-09T06:06:33.520Z,9.82
2023-05-09T06:09:01.480Z,8.75
2023-05-09T06:11:29.386Z,9.32
2023-05-09T06:13:57.397Z,8.00
2023-05-09T06:16:25.497Z,8.55
2023-05-09T06:18:56.112Z,9.00
2023-05-09T06:21:24.291Z,8.57
2023-05-09T06:24:07.707Z,9.13
2023-05-09T06:26:40.072Z,7.80
2023-05-09T06:29:08.187Z,7.93
2023-05-09T06:31:38.645Z,8.60
2023-05-09T06:34:08.822Z,8.52
2023-05-09T06:36:36.753Z,8.93
2023-05-09T06:39:04.881Z,8.32
2023-05-09T06:41:33.640Z,8.27
2023-05-09T06:44:02.620Z,8.68
2023-05-09T06:46:30.632Z,7.43
2023-05-09T06:48:58.707Z,7.78
2023-05-09T06:51:31.119Z,8.25
2023-05-09T06:53:59.177Z,7.72
2023-05-09T06:56:27.201Z,8.68
2023-05-09T06:58:55.400Z,8.27
2023-05-09T07:01:23.685Z,8.23
2023-05-09T07:03:52.170Z,8.52
2023-05-09T07:06:20.204Z,7.85
2023-05-09T07:08:49.540Z,7.15
2023-05-09T07:11:17.483Z,7.10
2023-05-09T07:13:46.928Z,7.70
2023-05-09T07:16:14.939Z,7.53
2023-05-09T07:18:42.883Z,7.47
2023-05-09T07:21:11.155Z,8.25
2023-05-09T07:23:39.049Z,7.00
2023-05-09T07:26:08.395Z,6.18
2023-05-09T07:28:36.390Z,7.00
2023-05-09T07:31:05.870Z,6.63
2023-05-09T07:33:34.633Z,6.47
2023-05-09T07:36:02.956Z,5.85
2023-05-09T07:38:30.923Z,6.82
2023-05-09T07:40:59.021Z,6.28
2023-05-09T07:43:28.337Z,6.30
2023-05-09T07:45:56.310Z,6.35
2023-05-09T07:48:24.240Z,6.75
2023-05-09T07:50:52.178Z,6.20
2023-05-09T07:53:20.117Z,6.72
2023-05-09T07:55:49.950Z,6.63
2023-05-09T07:58:17.994Z,6.40
2023-05-09T08:00:50.061Z,6.60
2023-05-09T08:03:18.141Z,6.40
2023-05-09T08:05:46.400Z,6.40
2023-05-09T08:08:14.342Z,6.43
2023-05-09T08:10:42.244Z,6.20
2023-05-09T08:13:10.257Z,6.00
2023-05-09T08:15:38.478Z,6.70
2023-05-09T08:18:07.907Z,5.88
2023-05-09T08:20:36.265Z,6.28
2023-05-09T08:23:04.185Z,5.57
2023-05-09T08:25:32.472Z,6.03
2023-05-09T08:28:00.368Z,5.68
2023-05-09T08:30:29.350Z,5.97
2023-05-09T08:32:59.987Z,5.68
2023-05-09T08:35:32.400Z,5.10
2023-05-09T08:38:00.654Z,5.15
2023-05-09T08:40:28.641Z,6.10
2023-05-09T08:42:56.816Z,5.53
2023-05-09T08:45:31.557Z,5.53
2023-05-09T08:48:00.793Z,5.50
2023-05-09T08:50:29.287Z,5.88
2023-05-09T08:52:58.848Z,5.70
2023-05-09T08:55:27.707Z,5.90
2023-05-09T08:57:55.928Z,5.90
2023-05-09T09:00:24.580Z,6.05
2023-05-09T09:02:54.203Z,5.78
2023-05-09T09:05:40.194Z,5.10
2023-05-09T09:08:11.965Z,5.40
2023-05-09T09:10:43.443Z,5.25
2023-05-09T09:13:15.296Z,4.82
2023-05-09T09:15:46.441Z,4.97
2023-05-09T09:18:19.784Z,5.00
2023-05-09T09:20:51.226Z,5.10
2023-05-09T09:23:21.738Z,5.20
2023-05-09T09:25:59.877Z,4.93
2023-05-09T09:28:28.139Z,5.20
2023-05-09T09:30:56.477Z,5.00
2023-05-09T09:33:26.265Z,5.35
2023-05-09T09:35:55.592Z,4.95
2023-05-09T09:38:26.803Z,4.97
2023-05-09T09:40:58.244Z,5.28
2023-05-09T09:43:29.962Z,5.82
2023-05-09T09:45:58.334Z,5.68
2023-05-09T09:48:33.790Z,5.60
2023-05-09T09:51:08.994Z,5.40
2023-05-09T09:53:42.029Z,4.75
2023-05-09T09:56:10.768Z,5.15
2023-05-09T09:58:38.840Z,5.30
2023-05-09T10:01:08.103Z,4.70
2023-05-09T10:03:38.198Z,4.53
2023-05-09T10:06:06.988Z,4.53
2023-05-09T10:08:34.894Z,4.95
2023-05-09T10:11:04.268Z,6.00
2023-05-09T10:13:32.408Z,4.97
2023-05-09T10:16:01.051Z,4.63
2023-05-09T10:18:31.961Z,4.55
2023-05-09T10:21:03.910Z,4.22
2023-05-09T10:23:33.790Z,4.75
2023-05-09T10:26:12.864Z,4.88
2023-05-09T10:28:43.134Z,4.47
2023-05-09T10:31:16.096Z,4.72
2023-05-09T10:33:50.693Z,4.57
2023-05-09T10:36:21.351Z,4.50
2023-05-09T10:38:54.975Z,4.55
2023-05-09T10:41:25.711Z,4.28
2023-05-09T10:43:54.101Z,4.57
2023-05-09T10:46:23.545Z,4.35
2023-05-09T10:48:52.497Z,4.07
2023-05-09T10:51:20.557Z,4.05
2023-05-09T10:53:49.906Z,4.40
2023-05-09T10:56:27.616Z,4.30
2023-05-09T10:58:55.829Z,3.72
2023-05-09T11:01:32.747Z,3.92
2023-05-09T11:04:01.654Z,3.97
2023-05-09T11:06:49.060Z,4.55
2023-05-09T11:09:33.865Z,4.25
2023-05-09T11:12:10.652Z,3.78
2023-05-09T11:14:44.377Z,3.90
2023-05-09T11:17:14.355Z,4.03
2023-05-09T11:20:01.341Z,3.90
2023-05-09T11:22:32.532Z,3.97
2023-05-09T11:25:04.656Z,4.35
2023-05-09T11:27:45.690Z,3.75
2023-05-09T11:30:15.525Z,3.88
2023-05-09T11:32:48.973Z,3.63
2023-05-09T11:35:19.537Z,4.18
2023-05-09T11:37:49.307Z,3.58
2023-05-09T11:40:18.745Z,4.15
2023-05-09T11:42:49.847Z,3.97
2023-05-09T11:45:18.863Z,3.58
2023-05-09T11:47:51.059Z,3.60
2023-05-09T11:50:22.057Z,4.28
2023-05-09T11:52:50.816Z,3.38
2023-05-09T11:55:22.176Z,3.25
2023-05-09T11:57:52.739Z,3.33
2023-05-09T12:00:22.636Z,3.63
2023-05-09T12:02:51.371Z,3.25
2023-05-09T12:05:20.770Z,3.10
2023-05-09T12:07:49.374Z,3.05
2023-05-09T12:10:21.067Z,3.20
2023-05-09T12:12:51.437Z,3.00
2023-05-09T12:15:21.730Z,2.83
2023-05-09T12:18:02.238Z,3.20
2023-05-09T12:20:40.653Z,2.95
2023-05-09T12:23:10.014Z,2.90
2023-05-09T12:25:37.954Z,3.30
2023-05-09T12:28:07.568Z,3.00
2023-05-09T12:30:36.029Z,3.53
2023-05-09T12:33:04.383Z,2.80
2023-05-09T12:35:32.983Z,2.90
2023-05-09T12:38:01.629Z,2.58
2023-05-09T12:40:32.285Z,3.17
2023-05-09T12:43:02.587Z,2.90
2023-05-09T12:45:33.696Z,2.70
2023-05-09T12:48:02.526Z,2.75
2023-05-09T12:50:35.470Z,2.97
2023-05-09T12:53:06.924Z,3.00
2023-05-09T12:55:41.557Z,2.88
2023-05-09T12:58:09.493Z,2.63
2023-05-09T13:00:45.834Z,2.65
2023-05-09T13:03:25.310Z,2.70
2023-05-09T13:05:57.384Z,2.45
2023-05-09T13:08:25.389Z,2.60
2023-05-09T13:11:00.800Z,2.40
2023-05-09T13:13:39.288Z,2.55
2023-05-09T13:16:10.750Z,2.60
2023-05-09T13:18:40.133Z,2.80
2023-05-09T13:21:08.086Z,2.53
2023-05-09T13:23:36.045Z,2.47
2023-05-09T13:26:04.050Z,2.50
2023-05-09T13:28:31.999Z,2.50
2023-05-09T13:31:01.236Z,2.45
2023-05-09T13:33:30.682Z,2.33
2023-05-09T13:35:58.743Z,2.50
2023-05-09T13:38:26.965Z,2.40
2023-05-09T13:40:55.106Z,2.20
2023-05-09T13:43:23.698Z,2.60
2023-05-09T13:45:51.647Z,2.60
2023-05-09T13:48:19.669Z,2.40
2023-05-09T13:50:49.465Z,2.60
2023-05-09T13:53:17.460Z,2.30
2023-05-09T13:55:45.547Z,2.17
2023-05-09T13:58:13.766Z,2.13
2023-05-09T14:00:41.900Z,2.42
2023-05-09T14:03:09.953Z,2.50
2023-05-09T14:05:38.064Z,2.53
2023-05-09T14:08:07.947Z,2.25
2023-05-09T14:10:35.909Z,2.17
2023-05-09T14:13:03.831Z,2.28
2023-05-09T14:15:31.763Z,2.55
2023-05-09T14:17:59.741Z,2.55
2023-05-09T14:20:28.442Z,2.40
2023-05-09T14:22:59.693Z,2.30
2023-05-09T14:25:29.422Z,2.17
2023-05-09T14:27:59.348Z,2.67
2023-05-09T14:30:30.003Z,2.28
2023-05-09T14:32:58.011Z,2.13
2023-05-09T14:35:26.157Z,1.95
2023-05-09T14:37:54.244Z,2.20
2023-05-09T14:40:22.815Z,2.08
2023-05-09T14:42:52.126Z,1.95
2023-05-09T14:45:20.271Z,2.17
2023-05-09T14:47:48.238Z,2.33
2023-05-09T14:50:17.018Z,2.20
2023-05-09T14:52:45.531Z,1.90
2023-05-09T14:55:13.512Z,2.15
2023-05-09T14:57:41.523Z,1.88
2023-05-09T15:00:20.481Z,1.88
2023-05-09T15:02:49.591Z,1.80
2023-05-09T15:05:18.109Z,2.15
2023-05-09T15:07:46.154Z,2.15
2023-05-09T15:10:14.731Z,2.10
2023-05-09T15:12:43.047Z,2.10
2023-05-09T15:15:18.411Z,1.80
2023-05-09T15:17:46.921Z,2.22
2023-05-09T15:20:16.278Z,1.90
2023-05-09T15:22:44.878Z,1.80
2023-05-09T15:25:13.384Z,1.90
2023-05-09T15:27:41.423Z,1.95
2023-05-09T15:30:10.669Z,1.95
2023-05-09T15:32:43.107Z,1.80
2023-05-09T15:35:11.463Z,2.03
2023-05-09T15:37:39.330Z,1.95
2023-05-09T15:40:08.611Z,1.95
2023-05-09T15:42:37.196Z,2.00
2023-05-09T15:45:05.632Z,1.98
2023-05-09T15:47:33.797Z,1.83
2023-05-09T15:50:03.299Z,1.98
2023-05-09T15:52:31.375Z,2.17
2023-05-09T15:55:02.206Z,2.22
2023-05-09T15:57:30.214Z,1.83
2023-05-09T15:59:58.235Z,1.90
2023-05-09T16:02:29.065Z,1.70
2023-05-09T16:04:57.018Z,1.90
2023-05-09T16:07:27.492Z,1.83
2023-05-09T16:09:55.455Z,1.90
2023-05-09T16:12:24.365Z,1.75
2023-05-09T16:14:52.337Z,1.95
2023-05-09T16:17:20.315Z,1.73
2023-05-09T16:19:48.179Z,2.00
2023-05-09T16:22:16.182Z,2.00
2023-05-09T16:24:45.517Z,1.85
2023-05-09T16:27:14.438Z,1.88
2023-05-09T16:29:42.573Z,1.90
2023-05-09T16:32:13.058Z,1.90
2023-05-09T16:34:41.135Z,1.77
2023-05-09T16:37:09.088Z,1.95
2023-05-09T16:39:37.073Z,1.92
2023-05-09T16:42:07.586Z,1.88
2023-05-09T16:44:35.582Z,1.80
2023-05-09T16:47:06.299Z,1.92
2023-05-09T16:49:34.319Z,1.90
2023-05-09T16:52:02.280Z,1.83
2023-05-09T16:54:32.297Z,1.95
2023-05-09T16:57:00.926Z,2.00
2023-05-09T16:59:30.217Z,1.90
2023-05-09T17:01:58.652Z,1.63
2023-05-09T17:04:26.777Z,1.60
2023-05-09T17:06:57.259Z,1.83
2023-05-09T17:09:25.621Z,1.83
2023-05-09T17:11:53.569Z,1.85
2023-05-09T17:14:21.584Z,1.50
2023-05-09T17:16:50.993Z,1.70
2023-05-09T17:19:19.071Z,1.80
2023-05-09T17:21:49.644Z,1.92
2023-05-09T17:24:17.917Z,1.88
2023-05-09T17:26:45.938Z,1.55
2023-05-09T17:29:13.891Z,1.50
2023-05-09T17:31:41.940Z,1.60
2023-05-09T17:34:11.734Z,1.48
2023-05-09T17:36:39.745Z,1.52
2023-05-09T17:39:07.708Z,1.60
2023-05-09T17:41:35.665Z,1.75
2023-05-09T17:44:03.626Z,1.80
2023-05-09T17:46:31.588Z,1.92
2023-05-09T17:48:59.653Z,1.55
2023-05-09T17:51:29.483Z,1.55
2023-05-09T17:53:57.398Z,1.60
2023-05-09T17:56:25.400Z,1.60
2023-05-09T17:58:53.754Z,1.55
2023-05-09T18:01:21.812Z,1.50
2023-05-09T18:03:50.062Z,1.70
2023-05-09T18:06:19.343Z,1.70
2023-05-09T18:08:48.682Z,1.75
2023-05-09T18:11:16.575Z,1.65
2023-05-09T18:13:44.525Z,1.75
2023-05-09T18:16:12.580Z,1.50
2023-05-09T18:18:40.500Z,1.58
2023-05-09T18:21:09.572Z,1.77
2023-05-09T18:23:37.714Z,1.55
2023-05-09T18:26:07.112Z,1.38
2023-05-09T18:28:39.303Z,1.48
2023-05-09T18:33:40.539Z,1.92
2023-05-09T18:36:11.303Z,1.40
2023-05-09T18:38:39.855Z,1.73
2023-05-09T18:41:10.547Z,2.00
2023-05-09T18:43:41.988Z,1.90
2023-05-09T18:46:10.024Z,1.85
2023-05-09T18:48:39.136Z,1.70
2023-05-09T18:51:07.241Z,1.83
2023-05-09T18:53:35.177Z,1.67
2023-05-09T18:56:03.077Z,2.00
2023-05-09T18:58:32.513Z,1.60
2023-05-09T19:01:01.033Z,1.98
2023-05-09T19:03:29.508Z,2.25
2023-05-09T19:05:57.609Z,1.88
2023-05-09T19:08:26.480Z,1.80
2023-05-09T19:10:57.428Z,2.00
2023-05-09T19:13:25.604Z,2.08
2023-05-09T19:15:54.971Z,1.90
2023-05-09T19:18:23.105Z,1.63
2023-05-09T19:20:50.996Z,2.00
2023-05-09T19:23:21.804Z,1.45
2023-05-09T19:25:50.093Z,1.60
2023-05-09T19:28:18.957Z,1.70
2023-05-09T19:30:47.295Z,1.80
2023-05-09T19:33:16.658Z,1.73
2023-05-09T19:35:47.232Z,1.77
2023-05-09T19:38:15.149Z,1.55
2023-05-09T19:40:43.095Z,1.27
2023-05-09T19:43:11.158Z,1.52
2023-05-09T19:45:41.712Z,1.30
2023-05-09T19:48:15.125Z,1.58
2023-05-09T19:50:44.750Z,1.67
2023-05-09T19:53:12.793Z,1.70
2023-05-09T19:55:41.180Z,1.88
2023-05-09T19:58:09.116Z,1.70
2023-05-09T20:00:38.862Z,1.77
2023-05-09T20:03:06.937Z,1.80
2023-05-09T20:05:44.085Z,2.90
2023-05-09T20:08:13.340Z,1.83
2023-05-09T20:10:41.270Z,1.67
2023-05-09T20:13:11.990Z,1.98
2023-05-09T20:15:40.070Z,1.70
2023-05-09T20:18:11.029Z,1.98
2023-05-09T20:20:38.999Z,1.92
2023-05-09T20:23:06.871Z,1.85
2023-05-09T20:25:36.233Z,1.90
2023-05-09T20:28:04.286Z,1.75
2023-05-09T20:30:32.272Z,2.10
2023-05-09T20:33:01.171Z,2.13
2023-05-09T20:35:29.262Z,1.73
2023-05-09T20:37:59.826Z,1.98
2023-05-09T20:40:28.289Z,2.00
2023-05-09T20:42:57.583Z,1.98
2023-05-09T20:45:28.611Z,2.42
2023-05-09T20:47:56.839Z,2.05
2023-05-09T20:50:25.035Z,2.20
2023-05-09T20:52:53.056Z,2.00
2023-05-09T20:55:21.225Z,2.38
2023-05-09T20:57:49.259Z,2.22
2023-05-09T21:00:18.977Z,2.00
2023-05-09T21:02:47.191Z,2.15
2023-05-09T21:05:15.216Z,1.98
2023-05-09T21:07:43.168Z,2.10
2023-05-09T21:10:11.657Z,1.90
2023-05-09T21:12:39.595Z,2.20
2023-05-09T21:15:08.845Z,2.33
2023-05-09T21:17:40.772Z,2.65
2023-05-09T21:20:10.076Z,2.30
2023-05-09T21:25:09.315Z,2.40
2023-05-09T21:27:37.314Z,3.05
2023-05-09T21:30:06.167Z,3.00
2023-05-09T21:32:34.158Z,2.50
2023-05-09T21:35:03.993Z,2.78
2023-05-09T21:37:31.939Z,2.25
2023-05-09T21:39:59.880Z,2.50
2023-05-09T21:42:29.908Z,2.58
2023-05-09T21:44:57.876Z,2.63
2023-05-09T21:47:26.060Z,2.10
2023-05-09T21:49:54.653Z,2.35
2023-05-09T21:52:23.925Z,2.80
2023-05-09T21:54:51.925Z,1.90
2023-05-09T21:57:22.642Z,2.03
2023-05-09T21:59:50.591Z,1.63
2023-05-09T22:02:18.540Z,1.70
2023-05-09T22:04:49.292Z,1.90
2023-05-09T22:07:17.254Z,1.63
2023-05-09T22:09:49.322Z,1.80
2023-05-09T22:12:17.250Z,1.70
2023-05-09T22:14:55.223Z,1.60
2023-05-09T22:17:25.011Z,1.80
2023-05-09T22:19:53.242Z,1.67
2023-05-09T22:22:21.388Z,1.70
2023-05-09T22:24:50.800Z,1.90
2023-05-09T22:27:18.760Z,1.70
2023-05-09T22:29:46.718Z,1.58
2023-05-09T22:32:16.535Z,1.70
2023-05-09T22:34:47.384Z,2.05
2023-05-09T22:37:15.919Z,1.90
2023-05-09T22:39:43.833Z,1.92
2023-05-09T22:42:13.121Z,1.63
2023-05-09T22:44:41.045Z,2.00
2023-05-09T22:47:09.126Z,2.00
2023-05-09T22:49:37.466Z,1.90
2023-05-09T22:52:05.795Z,1.98
2023-05-09T22:54:34.603Z,1.80
2023-05-09T22:57:02.562Z,1.80
2023-05-09T22:59:32.123Z,1.92
2023-05-09T23:02:00.400Z,1.70
2023-05-09T23:04:28.473Z,1.80
2023-05-09T23:06:56.509Z,1.67
2023-05-09T23:09:24.436Z,1.73
2023-05-09T23:11:52.693Z,2.10
2023-05-09T23:14:20.754Z,2.10
2023-05-09T23:16:50.744Z,1.70
2023-05-09T23:19:19.736Z,2.20
2023-05-09T23:21:47.879Z,1.80
2023-05-09T23:24:15.799Z,1.90
2023-05-09T23:26:43.712Z,2.05
2023-05-09T23:29:11.830Z,1.98
2023-05-09T23:31:40.179Z,2.03
2023-05-09T23:34:09.546Z,2.40
2023-05-09T23:36:37.447Z,1.85
2023-05-09T23:39:05.570Z,1.80
2023-05-09T23:41:33.561Z,2.47
2023-05-09T23:44:03.324Z,2.25
2023-05-09T23:46:31.632Z,2.38
2023-05-09T23:48:59.645Z,2.30
2023-05-09T23:51:29.002Z,2.85
2023-05-09T23:53:57.019Z,2.20
2023-05-09T23:56:27.770Z,2.42
2023-05-09T23:58:55.786Z,2.20
